K.pluto — 3EYQ3 — position and weather

sailwx.info

Track history (hours):
 
Tides and Currents Weather Stations Pressure Air Temp Water Temp Dewpoint Dewpoint Depression Visibility Wind Speed Wind Dir Waves Ship Positions

K.pluto

Last reported at 2017-May-22 11:41 UTC. Time now 2017-May-25 16:11 UTC.
Position N 01°15' E 104°05'.

Length 170 m; draft 9.6 m.

Type: Cargo ship. MMSI: 373504000.

Date/timePositionNaut miles runAvg speedWind from/ knotsBaromVisibWave heightAir tempDewpointWater temp
2017-May-22 11:41N 01°15' E 104°05'311.7
2017-May-22 11:25N 01°14' E 104°02'511.7
2017-May-22 10:59N 01°13' E 103°57'611.5
2017-May-22 10:30N 01°11' E 103°52'510.9
2017-May-22 10:00N 01°09' E 103°47'611.7
2017-May-22 09:30N 01°05' E 103°43'510.6
2017-May-22 09:00N 01°04' E 103°37'611.6
2017-May-22 08:30N 01°07' E 103°32'611.6
2017-May-22 07:59N 01°10' E 103°27'611.4
2017-May-22 07:30N 01°13' E 103°23'6211.2
2017-May-22 01:59N 01°46' E 102°30'611.4
2017-May-22 01:30N 01°48' E 102°25'611.7
2017-May-22 00:57N 01°51' E 102°19'  
Track history (hours):
 
Tides and Currents Weather Stations Pressure Air Temp Water Temp Dewpoint Dewpoint Depression Visibility Wind Speed Wind Dir Waves Ship Positions

K.pluto

Last reported at 2017-May-22 11:41 UTC. Time now 2017-May-25 16:11 UTC.
Position N 01°15' E 104°05'.

Length 170 m; draft 9.6 m.

Type: Cargo ship. MMSI: 373504000.

Date/timePositionNaut miles runAvg speedWind from/ knotsBaromVisibWave heightAir tempDewpointWater temp
2017-May-22 11:41N 01°15' E 104°05'311.7
2017-May-22 11:25N 01°14' E 104°02'511.7
2017-May-22 10:59N 01°13' E 103°57'611.5
2017-May-22 10:30N 01°11' E 103°52'510.9
2017-May-22 10:00N 01°09' E 103°47'611.7
2017-May-22 09:30N 01°05' E 103°43'510.6
2017-May-22 09:00N 01°04' E 103°37'611.6
2017-May-22 08:30N 01°07' E 103°32'611.6
2017-May-22 07:59N 01°10' E 103°27'611.4
2017-May-22 07:30N 01°13' E 103°23'6211.2
2017-May-22 01:59N 01°46' E 102°30'611.4
2017-May-22 01:30N 01°48' E 102°25'611.7
2017-May-22 00:57N 01°51' E 102°19'  

Dump ship's entire track history